createdAt,value
2018-10-02T00:02:18.683Z,2.27
2018-10-02T00:07:22.952Z,4.50
2018-10-02T00:12:32.478Z,2.93
2018-10-02T00:17:36.723Z,5.80
2018-10-02T00:22:40.929Z,3.47
2018-10-02T00:27:45.135Z,1.93
2018-10-02T00:32:49.312Z,4.77
2018-10-02T00:37:53.526Z,3.43
2018-10-02T00:42:57.746Z,2.53
2018-10-02T00:48:01.944Z,1.63
2018-10-02T00:53:06.168Z,2.57
2018-10-02T00:58:10.433Z,2.80
2018-10-02T01:03:14.618Z,5.13
2018-10-02T01:08:18.774Z,4.23
2018-10-02T01:13:23.161Z,2.40
2018-10-02T01:18:27.347Z,2.47
2018-10-02T01:23:31.629Z,4.03
2018-10-02T01:28:35.852Z,2.07
2018-10-02T01:33:40.019Z,1.50
2018-10-02T01:38:44.431Z,5.70
2018-10-02T01:43:48.920Z,2.27
2018-10-02T01:48:53.114Z,3.53
2018-10-02T01:53:57.371Z,2.80
2018-10-02T01:59:01.627Z,3.63
2018-10-02T02:04:05.822Z,2.77
2018-10-02T02:09:10.296Z,2.67
2018-10-02T02:14:14.777Z,3.20
2018-10-02T02:19:19.008Z,3.50
2018-10-02T02:24:23.339Z,3.70
2018-10-02T02:29:27.719Z,2.93
2018-10-02T02:34:31.933Z,2.33
2018-10-02T02:39:36.150Z,7.20
2018-10-02T02:44:40.357Z,2.97
2018-10-02T02:49:50.176Z,3.43
2018-10-02T02:54:54.443Z,1.63
2018-10-02T02:59:58.609Z,5.40
2018-10-02T03:05:02.890Z,2.20
2018-10-02T03:10:07.068Z,3.40
2018-10-02T03:15:11.263Z,3.23
2018-10-02T03:20:15.431Z,3.53
2018-10-02T03:25:19.707Z,3.93
2018-10-02T03:30:23.973Z,2.97
2018-10-02T03:35:28.229Z,3.93
2018-10-02T03:40:32.464Z,2.50
2018-10-02T03:45:36.744Z,2.37
2018-10-02T03:50:40.922Z,4.00
2018-10-02T03:55:45.088Z,3.10
2018-10-02T04:00:49.496Z,2.63
2018-10-02T04:05:53.705Z,3.67
2018-10-02T04:10:58.007Z,2.60
2018-10-02T04:16:02.213Z,4.80
2018-10-02T04:21:06.527Z,4.20
2018-10-02T04:26:10.769Z,1.80
2018-10-02T04:31:15.019Z,3.47
2018-10-02T04:36:19.213Z,2.00
2018-10-02T04:41:23.710Z,2.40
2018-10-02T04:46:28.076Z,2.27
2018-10-02T04:51:32.339Z,2.30
2018-10-02T04:56:36.507Z,4.53
2018-10-02T05:01:40.775Z,2.67
2018-10-02T05:06:45.081Z,3.50
2018-10-02T05:11:49.266Z,3.03
2018-10-02T05:16:53.534Z,3.70
2018-10-02T05:21:57.698Z,5.37
2018-10-02T05:27:02.027Z,2.80
2018-10-02T05:32:06.243Z,5.70
2018-10-02T05:37:13.065Z,3.53
2018-10-02T05:42:17.683Z,3.33
2018-10-02T05:47:22.011Z,6.57
2018-10-02T05:52:26.511Z,3.03
2018-10-02T05:57:31.011Z,2.70
2018-10-02T06:02:35.555Z,2.80
2018-10-02T06:07:39.806Z,3.27
2018-10-02T06:12:44.056Z,3.40
2018-10-02T06:17:48.335Z,2.73
2018-10-02T06:22:52.941Z,2.93
2018-10-02T06:27:57.201Z,2.43
2018-10-02T06:33:01.624Z,2.57
2018-10-02T06:38:06.150Z,3.53
2018-10-02T06:43:10.317Z,1.70
2018-10-02T06:48:14.707Z,5.30
2018-10-02T06:53:18.887Z,4.47
2018-10-02T06:58:24.051Z,3.43
2018-10-02T07:03:28.296Z,2.80
2018-10-02T07:08:32.655Z,2.40
2018-10-02T07:13:36.894Z,2.93
2018-10-02T07:18:41.419Z,4.47
2018-10-02T07:23:45.654Z,2.87
2018-10-02T07:28:49.854Z,2.60
2018-10-02T07:33:54.300Z,3.03
2018-10-02T07:38:58.538Z,2.17
2018-10-02T07:44:02.770Z,1.10
2018-10-02T07:49:06.941Z,2.67
2018-10-02T07:54:11.182Z,2.90
2018-10-02T07:59:15.409Z,3.67
2018-10-02T08:04:19.796Z,3.27
2018-10-02T08:09:24.429Z,1.20
2018-10-02T08:14:29.016Z,1.93
2018-10-02T08:19:33.404Z,3.50
2018-10-02T08:24:37.940Z,3.63
2018-10-02T08:29:42.510Z,2.97
2018-10-02T08:34:46.887Z,2.67
2018-10-02T08:39:51.321Z,1.73
2018-10-02T08:44:55.753Z,1.93
2018-10-02T08:50:00.042Z,2.70
2018-10-02T08:55:04.280Z,1.90
2018-10-02T09:00:08.512Z,4.73
2018-10-02T09:05:12.876Z,2.77
2018-10-02T09:10:17.060Z,5.10
2018-10-02T09:15:22.149Z,5.70
2018-10-02T09:20:26.552Z,5.77
2018-10-02T09:25:30.895Z,2.50
2018-10-02T09:30:40.605Z,5.30
2018-10-02T09:35:50.240Z,3.23
2018-10-02T09:40:59.535Z,3.30
2018-10-02T09:46:03.905Z,2.40
2018-10-02T09:51:08.321Z,1.47
2018-10-02T09:56:12.623Z,2.27
2018-10-02T10:01:22.202Z,2.27
2018-10-02T10:06:26.616Z,1.40
2018-10-02T10:11:31.007Z,2.40
2018-10-02T10:16:35.419Z,2.60
2018-10-02T10:21:39.915Z,2.40
2018-10-02T10:26:44.429Z,2.90
2018-10-02T10:31:48.564Z,1.50
2018-10-02T10:36:53.192Z,1.30
2018-10-02T10:41:57.838Z,1.33
2018-10-02T10:47:02.324Z,1.63
2018-10-02T10:52:06.621Z,0.90
2018-10-02T10:57:10.952Z,1.37
2018-10-02T11:02:15.238Z,1.43
2018-10-02T11:07:19.739Z,1.10
2018-10-02T11:12:23.959Z,0.70
2018-10-02T11:17:28.310Z,1.70
2018-10-02T11:22:33.345Z,0.93
2018-10-02T11:27:37.545Z,0.90
2018-10-02T11:32:41.776Z,2.07
2018-10-02T11:37:46.276Z,0.70
2018-10-02T11:42:50.459Z,0.90
2018-10-02T11:47:54.896Z,1.27
2018-10-02T11:52:59.195Z,1.37
2018-10-02T11:58:03.739Z,0.93
2018-10-02T12:03:08.035Z,2.77
2018-10-02T12:08:12.610Z,0.93
2018-10-02T12:13:17.013Z,1.63
2018-10-02T12:18:21.471Z,1.23
2018-10-02T12:23:25.709Z,1.70
2018-10-02T12:28:29.967Z,0.90
2018-10-02T12:33:34.473Z,2.37
2018-10-02T12:38:39.042Z,1.43
2018-10-02T12:43:43.435Z,1.13
2018-10-02T12:48:47.744Z,1.30
2018-10-02T12:53:51.929Z,1.07
2018-10-02T12:58:56.253Z,1.03
2018-10-02T13:04:00.472Z,1.27
2018-10-02T13:09:06.743Z,0.87
2018-10-02T13:14:10.978Z,1.00
2018-10-02T13:19:15.251Z,0.73
2018-10-02T13:24:19.517Z,0.90
2018-10-02T13:29:23.903Z,0.80
2018-10-02T13:34:28.422Z,0.90
2018-10-02T13:39:32.549Z,1.13
2018-10-02T13:44:36.916Z,1.93
2018-10-02T13:49:41.163Z,2.03
2018-10-02T13:54:45.636Z,1.50
2018-10-02T13:59:50.846Z,2.40
2018-10-02T14:04:55.026Z,2.20
2018-10-02T14:09:59.207Z,3.77
2018-10-02T14:15:04.952Z,3.00
2018-10-02T14:20:09.197Z,2.50
2018-10-02T14:25:13.495Z,4.47
2018-10-02T14:30:17.754Z,3.67
2018-10-02T14:35:22.977Z,4.97
2018-10-02T14:40:27.280Z,4.50
2018-10-02T14:45:31.833Z,5.60
2018-10-02T14:50:36.187Z,4.83
2018-10-02T14:55:40.593Z,3.80
2018-10-02T15:00:44.832Z,6.27
2018-10-02T15:05:49.305Z,5.97
2018-10-02T15:10:53.595Z,5.73
2018-10-02T15:15:57.760Z,4.90
2018-10-02T15:21:01.913Z,4.23
2018-10-02T15:26:06.168Z,4.13
2018-10-02T15:31:17.286Z,5.87
2018-10-02T15:36:21.782Z,3.87
2018-10-02T15:41:25.963Z,4.53
2018-10-02T15:46:30.502Z,4.10
2018-10-02T15:51:37.849Z,4.43
2018-10-02T15:56:42.218Z,5.60
2018-10-02T16:01:56.945Z,3.50
2018-10-02T16:07:01.401Z,4.73
2018-10-02T16:12:05.769Z,4.40
2018-10-02T16:17:10.077Z,6.03
2018-10-02T16:22:14.342Z,4.70
2018-10-02T16:27:18.560Z,5.73
2018-10-02T16:32:23.152Z,4.63
2018-10-02T16:37:27.493Z,3.77
2018-10-02T16:42:31.991Z,3.50
2018-10-02T16:47:36.440Z,12.87
2018-10-02T16:52:40.666Z,5.63
2018-10-02T16:57:44.878Z,3.97
2018-10-02T17:02:49.283Z,7.90
2018-10-02T17:07:53.576Z,5.93
2018-10-02T17:12:57.955Z,3.90
2018-10-02T17:18:02.236Z,4.60
2018-10-02T17:23:06.484Z,4.57
2018-10-02T17:28:10.682Z,5.37
2018-10-02T17:33:14.894Z,5.30
2018-10-02T17:38:19.477Z,6.87
2018-10-02T17:43:23.680Z,3.13
2018-10-02T17:48:28.961Z,5.40
2018-10-02T17:53:33.150Z,4.07
2018-10-02T17:58:37.368Z,5.37
2018-10-02T18:03:41.516Z,8.17
2018-10-02T18:08:45.986Z,7.93
2018-10-02T18:13:50.525Z,5.63
2018-10-02T18:18:54.913Z,7.13
2018-10-02T18:23:59.260Z,5.57
2018-10-02T18:29:04.278Z,8.13
2018-10-02T18:34:10.693Z,5.00
2018-10-02T18:39:15.700Z,7.43
2018-10-02T18:44:20.492Z,8.23
2018-10-02T18:49:24.709Z,5.93
2018-10-02T18:54:29.460Z,6.83
2018-10-02T18:59:33.795Z,6.23
2018-10-02T19:04:38.537Z,6.57
2018-10-02T19:09:46.624Z,12.43
2018-10-02T19:14:51.321Z,6.13
2018-10-02T19:20:01.391Z,6.60
2018-10-02T19:25:10.889Z,6.00
2018-10-02T19:30:20.782Z,5.33
2018-10-02T19:35:25.784Z,6.30
2018-10-02T19:40:30.136Z,6.37
2018-10-02T19:45:40.056Z,4.47
2018-10-02T19:50:44.290Z,6.83
2018-10-02T19:55:50.113Z,8.97
2018-10-02T20:00:54.506Z,4.97
2018-10-02T20:06:01.064Z,7.33
2018-10-02T20:11:06.066Z,5.67
2018-10-02T20:16:11.507Z,5.73
2018-10-02T20:21:16.005Z,7.17
2018-10-02T20:26:20.482Z,6.03
2018-10-02T20:31:25.992Z,7.97
2018-10-02T20:36:30.274Z,7.53
2018-10-02T20:41:35.087Z,6.60
2018-10-02T20:46:39.459Z,7.20
2018-10-02T20:51:43.862Z,9.10
2018-10-02T20:56:48.228Z,6.53
2018-10-02T21:01:52.601Z,6.50
2018-10-02T21:06:57.060Z,9.20
2018-10-02T21:12:01.367Z,7.10
2018-10-02T21:17:05.557Z,6.47
2018-10-02T21:22:10.169Z,5.53
2018-10-02T21:27:14.612Z,7.73
2018-10-02T21:32:19.001Z,8.47
2018-10-02T21:37:23.371Z,7.83
2018-10-02T21:42:27.549Z,5.77
2018-10-02T21:47:31.729Z,6.17
2018-10-02T21:52:36.078Z,7.27
2018-10-02T21:57:40.307Z,6.57
2018-10-02T22:02:44.925Z,9.63
2018-10-02T22:07:49.120Z,7.07
2018-10-02T22:12:53.324Z,8.27
2018-10-02T22:17:57.504Z,6.43
2018-10-02T22:23:01.731Z,5.83
2018-10-02T22:28:05.943Z,5.80
2018-10-02T22:33:10.217Z,8.10
2018-10-02T22:38:14.373Z,8.43
2018-10-02T22:43:18.753Z,6.93
2018-10-02T22:48:23.304Z,7.33
2018-10-02T22:53:27.549Z,7.30
2018-10-02T22:58:31.744Z,5.10
2018-10-02T23:03:35.950Z,5.47
2018-10-02T23:08:40.319Z,6.23
2018-10-02T23:13:44.502Z,6.93
2018-10-02T23:18:48.773Z,7.23
2018-10-02T23:23:52.945Z,7.13
2018-10-02T23:28:57.273Z,6.30
2018-10-02T23:34:01.548Z,7.30
2018-10-02T23:39:07.542Z,8.93
2018-10-02T23:44:11.982Z,7.03
2018-10-02T23:49:16.209Z,7.57
2018-10-02T23:54:20.340Z,7.90
2018-10-02T23:59:24.582Z,8.30
